Time,TemperatureF,DewpointF,PressureIn,WindDirection,WindDirectionDegrees,WindSpeedMPH,WindSpeedGustMPH,Humidity,HourlyPrecipIn,Conditions,Clouds,dailyrainin,SoftwareType,DateUTC
2013-02-12 00:01:00,-7.0,-11.0,-100.00,North,354,0.0,2.0,83,-99.99,,,-99.99,,2013-02-12 08:01:00,
2013-02-12 00:11:00,-7.0,-11.0,-100.00,North,0,0.0,1.0,82,-99.99,,,-99.99,,2013-02-12 08:11:00,
2013-02-12 00:21:00,-7.0,-11.0,-100.00,NNW,346,0.0,2.0,82,-99.99,,,-99.99,,2013-02-12 08:21:00,
2013-02-12 00:31:00,-8.0,-12.0,-100.00,NNW,346,0.0,2.0,82,-99.99,,,-99.99,,2013-02-12 08:31:00,
2013-02-12 00:41:00,-8.0,-12.0,-100.00,NNW,339,0.0,2.0,82,-99.99,,,-99.99,,2013-02-12 08:41:00,
2013-02-12 00:52:00,-7.0,-10.0,-100.00,North,350,1.0,2.0,84,-99.99,,,-99.99,,2013-02-12 08:52:00,
2013-02-12 01:01:00,-7.0,-11.0,-100.00,NNE,18,0.0,2.0,81,-99.99,,,-99.99,,2013-02-12 09:01:00,
2013-02-12 01:11:00,-7.0,-11.0,-100.00,NE,40,0.0,2.0,82,-99.99,,,-99.99,,2013-02-12 09:11:00,
2013-02-12 01:21:00,-7.0,-11.0,-100.00,ENE,59,0.0,2.0,82,-99.99,,,-99.99,,2013-02-12 09:21:00,
2013-02-12 01:31:00,-9.0,-13.0,-100.00,North,352,0.0,2.0,82,-99.99,,,-99.99,,2013-02-12 09:31:00,
2013-02-12 01:41:00,-8.0,-12.0,-100.00,NNE,14,0.0,2.0,82,-99.99,,,-99.99,,2013-02-12 09:41:00,
2013-02-12 01:51:00,-9.0,-13.0,-100.00,NNW,342,0.0,2.0,81,-99.99,,,-99.99,,2013-02-12 09:51:00,
2013-02-12 02:01:00,-8.0,-12.0,-100.00,North,349,0.0,3.0,82,-99.99,,,-99.99,,2013-02-12 10:01:00,
2013-02-12 02:11:00,-8.0,-12.0,-100.00,NNW,333,2.0,3.0,82,-99.99,,,-99.99,,2013-02-12 10:11:00,
2013-02-12 02:21:00,-7.0,-11.0,-100.00,NNW,343,1.0,3.0,83,-99.99,,,-99.99,,2013-02-12 10:21:00,
2013-02-12 02:31:00,-8.0,-12.0,-100.00,North,354,1.0,3.0,82,-99.99,,,-99.99,,2013-02-12 10:31:00,
2013-02-12 02:43:00,-9.0,-13.0,-100.00,NNE,13,2.0,5.0,81,-99.99,,,-99.99,,2013-02-12 10:43:00,
2013-02-12 02:51:00,-9.0,-13.0,-100.00,North,3,2.0,3.0,81,-99.99,,,-99.99,,2013-02-12 10:51:00,
2013-02-12 03:01:00,-6.0,-10.0,-100.00,North,10,2.0,5.0,84,-99.99,,,-99.99,,2013-02-12 11:01:00,
2013-02-12 03:11:00,-5.0,-8.0,-100.00,North,11,2.0,4.0,84,-99.99,,,-99.99,,2013-02-12 11:11:00,
2013-02-12 03:21:00,-4.0,-8.0,-100.00,North,3,1.0,3.0,83,-99.99,,,-99.99,,2013-02-12 11:21:00,
2013-02-12 03:31:00,-4.0,-7.0,-100.00,North,7,1.0,3.0,84,-99.99,,,-99.99,,2013-02-12 11:31:00,
2013-02-12 03:41:00,-4.0,-8.0,-100.00,NNE,32,2.0,4.0,83,-99.99,,,-99.99,,2013-02-12 11:41:00,
2013-02-12 03:52:00,-5.0,-8.0,-100.00,North,353,2.0,3.0,84,-99.99,,,-99.99,,2013-02-12 11:52:00,
2013-02-12 04:01:00,-4.0,-8.0,-100.00,NNW,347,2.0,4.0,84,-99.99,,,-99.99,,2013-02-12 12:01:00,
2013-02-12 04:11:00,-4.0,-8.0,-100.00,North,360,1.0,2.0,83,-99.99,,,-99.99,,2013-02-12 12:11:00,
2013-02-12 04:21:00,-5.0,-9.0,-100.00,NNW,337,2.0,3.0,83,-99.99,,,-99.99,,2013-02-12 12:21:00,
2013-02-12 04:32:00,-6.0,-10.0,-100.00,North,8,2.0,4.0,82,-99.99,,,-99.99,,2013-02-12 12:32:00,
2013-02-12 04:42:00,0.0,-2.0,-100.00,NNE,30,3.0,6.0,93,-99.99,,,-99.99,,2013-02-12 12:42:00,
2013-02-12 04:52:00,-1.0,-4.0,-100.00,NE,35,2.0,5.0,86,-99.99,,,-99.99,,2013-02-12 12:52:00,
2013-02-12 05:01:00,0.0,-3.0,-100.00,NE,45,3.0,5.0,85,-99.99,,,-99.99,,2013-02-12 13:01:00,
2013-02-12 05:11:00,1.0,-2.0,-100.00,NE,47,3.0,8.0,89,-99.99,,,-99.99,,2013-02-12 13:11:00,
2013-02-12 05:22:00,0.0,-4.0,-100.00,NE,35,3.0,6.0,83,-99.99,,,-99.99,,2013-02-12 13:22:00,
2013-02-12 05:31:00,3.0,0.0,-100.00,ENE,58,4.0,9.0,89,-99.99,,,-99.99,,2013-02-12 13:31:00,
2013-02-12 05:41:00,6.0,4.0,-100.00,NE,37,5.0,8.0,90,-99.99,,,-99.99,,2013-02-12 13:41:00,
2013-02-12 05:42:00,4.0,0.0,-100.00,ENE,68,4.0,8.0,85,-99.99,,,-99.99,,2013-02-12 13:42:00,
2013-02-12 05:51:00,3.0,0.0,-100.00,NE,35,2.0,6.0,85,-99.99,,,-99.99,,2013-02-12 13:51:00,
2013-02-12 06:01:00,3.0,0.0,-100.00,NNE,24,3.0,5.0,86,-99.99,,,-99.99,,2013-02-12 14:01:00,
2013-02-12 06:11:00,3.0,0.0,-100.00,NNE,24,3.0,5.0,86,-99.99,,,-99.99,,2013-02-12 14:11:00,
2013-02-12 06:21:00,6.0,4.0,-100.00,NE,37,5.0,8.0,90,-99.99,,,-99.99,,2013-02-12 14:21:00,
2013-02-12 06:31:00,6.0,4.0,-100.00,NE,37,5.0,8.0,90,-99.99,,,-99.99,,2013-02-12 14:31:00,
2013-02-12 07:01:00,8.0,6.0,-100.00,NE,56,7.0,9.0,89,-99.99,,,-99.99,,2013-02-12 15:01:00,
2013-02-12 07:11:00,8.0,5.0,-100.00,NE,55,7.0,8.0,87,-99.99,,,-99.99,,2013-02-12 15:11:00,
2013-02-12 07:21:00,3.0,-1.0,-100.00,NE,40,5.0,8.0,84,-99.99,,,-99.99,,2013-02-12 15:21:00,
2013-02-12 07:32:00,2.0,-1.0,-100.00,NNE,30,3.0,6.0,86,-99.99,,,-99.99,,2013-02-12 15:32:00,
2013-02-12 07:42:00,5.0,3.0,-100.00,North,357,3.0,4.0,89,-99.99,,,-99.99,,2013-02-12 15:42:00,
2013-02-12 07:52:00,5.0,1.0,-100.00,NNE,17,4.0,6.0,86,-99.99,,,-99.99,,2013-02-12 15:52:00,
2013-02-12 08:01:00,6.0,3.0,-100.00,NNE,28,4.0,5.0,86,-99.99,,,-99.99,,2013-02-12 16:01:00,
2013-02-12 08:11:00,6.0,2.0,-100.00,NE,37,5.0,7.0,84,-99.99,,,-99.99,,2013-02-12 16:11:00,
2013-02-12 08:22:00,9.0,6.0,-100.00,NNE,13,5.0,6.0,88,-99.99,,,-99.99,,2013-02-12 16:22:00,
2013-02-12 08:31:00,13.0,8.0,-100.00,North,6,4.0,6.0,82,-99.99,,,-99.99,,2013-02-12 16:31:00,
2013-02-12 08:41:00,16.0,10.0,-100.00,NNE,32,4.0,6.0,74,-99.99,,,-99.99,,2013-02-12 16:41:00,
2013-02-12 08:51:00,18.0,10.0,-100.00,NE,37,4.0,6.0,70,-99.99,,,-99.99,,2013-02-12 16:51:00,
2013-02-12 09:01:00,18.0,10.0,-100.00,North,4,3.0,7.0,70,-99.99,,,-99.99,,2013-02-12 17:01:00,
2013-02-12 09:11:00,19.0,10.0,-100.00,NNW,339,3.0,6.0,68,-99.99,,,-99.99,,2013-02-12 17:11:00,
2013-02-12 09:21:00,19.0,11.0,-100.00,NNW,339,5.0,7.0,71,-99.99,,,-99.99,,2013-02-12 17:21:00,
2013-02-12 09:31:00,21.0,11.0,-100.00,NNW,342,3.0,5.0,66,-99.99,,,-99.99,,2013-02-12 17:31:00,
2013-02-12 09:42:00,22.0,11.0,-100.00,NNW,332,4.0,6.0,63,-99.99,,,-99.99,,2013-02-12 17:42:00,
2013-02-12 09:52:00,23.0,12.0,-100.00,NNW,342,3.0,5.0,63,-99.99,,,-99.99,,2013-02-12 17:52:00,
2013-02-12 10:01:00,23.0,12.0,-100.00,NNW,332,3.0,4.0,60,-99.99,,,-99.99,,2013-02-12 18:01:00,
2013-02-12 10:11:00,24.0,12.0,-100.00,NW,309,3.0,5.0,60,-99.99,,,-99.99,,2013-02-12 18:11:00,
2013-02-12 10:22:00,25.0,13.0,-100.00,NW,313,4.0,6.0,60,-99.99,,,-99.99,,2013-02-12 18:22:00,
2013-02-12 10:31:00,25.0,13.0,-100.00,NW,313,4.0,6.0,60,-99.99,,,-99.99,,2013-02-12 18:31:00,
2013-02-12 10:41:00,24.0,12.0,-100.00,NNW,339,5.0,7.0,59,-99.99,,,-99.99,,2013-02-12 18:41:00,
2013-02-12 10:52:00,25.0,12.0,-100.00,NNW,329,5.0,7.0,58,-99.99,,,-99.99,,2013-02-12 18:52:00,
2013-02-12 11:02:00,25.0,13.0,-100.00,NW,320,6.0,9.0,59,-99.99,,,-99.99,,2013-02-12 19:02:00,
2013-02-12 11:11:00,25.0,13.0,-100.00,NNW,329,7.0,10.0,60,-99.99,,,-99.99,,2013-02-12 19:11:00,
2013-02-12 11:21:00,25.0,13.0,-100.00,NNW,335,6.0,10.0,59,-99.99,,,-99.99,,2013-02-12 19:21:00,
2013-02-12 11:31:00,26.0,13.0,-100.00,NW,319,5.0,8.0,56,-99.99,,,-99.99,,2013-02-12 19:31:00,
2013-02-12 11:41:00,27.0,13.0,-100.00,NNW,330,4.0,6.0,55,-99.99,,,-99.99,,2013-02-12 19:41:00,
2013-02-12 11:51:00,27.0,13.0,-100.00,NNW,337,5.0,9.0,56,-99.99,,,-99.99,,2013-02-12 19:51:00,
2013-02-12 12:01:00,27.0,13.0,-100.00,NNW,329,6.0,9.0,56,-99.99,,,-99.99,,2013-02-12 20:01:00,
2013-02-12 12:11:00,27.0,14.0,-100.00,NNW,330,6.0,8.0,58,-99.99,,,-99.99,,2013-02-12 20:11:00,
2013-02-12 12:21:00,27.0,14.0,-100.00,NNW,337,6.0,9.0,58,-99.99,,,-99.99,,2013-02-12 20:21:00,
2013-02-12 12:31:00,27.0,14.0,-100.00,NNW,337,6.0,9.0,58,-99.99,,,-99.99,,2013-02-12 20:31:00,
2013-02-12 12:41:00,28.0,14.0,-100.00,NNW,347,5.0,8.0,56,-99.99,,,-99.99,,2013-02-12 20:41:00,
2013-02-12 12:52:00,28.0,16.0,-100.00,NNW,336,6.0,10.0,59,-99.99,,,-99.99,,2013-02-12 20:52:00,
2013-02-12 13:01:00,28.0,14.0,-100.00,NNW,329,7.0,11.0,57,-99.99,,,-99.99,,2013-02-12 21:01:00,
2013-02-12 13:11:00,28.0,14.0,-100.00,NNW,329,7.0,11.0,57,-99.99,,,-99.99,,2013-02-12 21:11:00,
2013-02-12 13:21:00,28.0,15.0,-100.00,NNW,335,8.0,12.0,58,-99.99,,,-99.99,,2013-02-12 21:21:00,
2013-02-12 13:31:00,28.0,14.0,-100.00,NNW,336,7.0,11.0,56,-99.99,,,-99.99,,2013-02-12 21:31:00,
2013-02-12 13:41:00,28.0,16.0,-100.00,NNW,336,7.0,10.0,60,-99.99,,,-99.99,,2013-02-12 21:41:00,
2013-02-12 13:51:00,28.0,16.0,-100.00,NNW,333,8.0,12.0,59,-99.99,,,-99.99,,2013-02-12 21:51:00,
2013-02-12 14:01:00,29.0,16.0,-100.00,NNW,329,7.0,11.0,60,-99.99,,,-99.99,,2013-02-12 22:01:00,
2013-02-12 14:12:00,28.0,16.0,-100.00,NNW,335,8.0,13.0,59,-99.99,,,-99.99,,2013-02-12 22:12:00,
2013-02-12 14:21:00,29.0,16.0,-100.00,NNW,337,7.0,11.0,58,-99.99,,,-99.99,,2013-02-12 22:21:00,
2013-02-12 14:31:00,29.0,17.0,-100.00,NNW,346,7.0,11.0,61,-99.99,,,-99.99,,2013-02-12 22:31:00,
2013-02-12 14:41:00,28.0,16.0,-100.00,NW,323,8.0,13.0,60,-99.99,,,-99.99,,2013-02-12 22:41:00,
2013-02-12 14:51:00,28.0,16.0,-100.00,NNW,330,9.0,13.0,60,-99.99,,,-99.99,,2013-02-12 22:51:00,
2013-02-12 15:01:00,29.0,16.0,-100.00,NNW,342,6.0,10.0,58,-99.99,,,-99.99,,2013-02-12 23:01:00,
2013-02-12 15:11:00,29.0,17.0,-100.00,North,349,6.0,11.0,61,-99.99,,,-99.99,,2013-02-12 23:11:00,
2013-02-12 15:21:00,29.0,17.0,-100.00,NNW,339,5.0,8.0,59,-99.99,,,-99.99,,2013-02-12 23:21:00,
2013-02-12 15:31:00,29.0,17.0,-100.00,North,350,5.0,9.0,60,-99.99,,,-99.99,,2013-02-12 23:31:00,
2013-02-12 15:41:00,29.0,16.0,-100.00,NNW,346,6.0,10.0,60,-99.99,,,-99.99,,2013-02-12 23:41:00,
2013-02-12 15:52:00,28.0,15.0,-100.00,NNW,339,6.0,9.0,58,-99.99,,,-99.99,,2013-02-12 23:52:00,
2013-02-12 16:02:00,29.0,17.0,-100.00,North,353,4.0,7.0,59,-99.99,,,-99.99,,2013-02-13 00:02:00,
2013-02-12 16:11:00,29.0,16.0,-100.00,NNW,336,4.0,7.0,59,-99.99,,,-99.99,,2013-02-13 00:11:00,
2013-02-12 16:21:00,29.0,17.0,-100.00,NNW,340,3.0,6.0,59,-99.99,,,-99.99,,2013-02-13 00:21:00,
2013-02-12 16:32:00,29.0,16.0,-100.00,WNW,302,4.0,6.0,60,-99.99,,,-99.99,,2013-02-13 00:32:00,
2013-02-12 16:42:00,29.0,16.0,-100.00,WNW,302,4.0,6.0,60,-99.99,,,-99.99,,2013-02-13 00:42:00,
2013-02-12 16:51:00,28.0,16.0,-100.00,NW,325,5.0,8.0,61,-99.99,,,-99.99,,2013-02-13 00:51:00,
2013-02-12 17:01:00,27.0,16.0,-100.00,NW,305,5.0,9.0,63,-99.99,,,-99.99,,2013-02-13 01:01:00,
2013-02-12 17:11:00,27.0,17.0,-100.00,NW,320,2.0,5.0,65,-99.99,,,-99.99,,2013-02-13 01:11:00,
2013-02-12 17:21:00,27.0,17.0,-100.00,NNW,332,0.0,2.0,64,-99.99,,,-99.99,,2013-02-13 01:21:00,
2013-02-12 17:31:00,27.0,17.0,-100.00,NNW,344,0.0,2.0,64,-99.99,,,-99.99,,2013-02-13 01:31:00,
2013-02-12 17:42:00,26.0,17.0,-100.00,North,357,1.0,3.0,68,-99.99,,,-99.99,,2013-02-13 01:42:00,
2013-02-12 17:51:00,24.0,16.0,-100.00,WNW,301,2.0,4.0,72,-99.99,,,-99.99,,2013-02-13 01:51:00,
2013-02-12 18:01:00,24.0,17.0,-100.00,West,277,1.0,4.0,74,-99.99,,,-99.99,,2013-02-13 02:01:00,
2013-02-12 18:11:00,25.0,17.0,-100.00,West,265,3.0,6.0,72,-99.99,,,-99.99,,2013-02-13 02:11:00,
2013-02-12 18:21:00,23.0,16.0,-100.00,NW,322,4.0,8.0,74,-99.99,,,-99.99,,2013-02-13 02:21:00,
2013-02-12 18:31:00,23.0,16.0,-100.00,NW,318,5.0,9.0,75,-99.99,,,-99.99,,2013-02-13 02:31:00,
2013-02-12 18:41:00,23.0,16.0,-100.00,NNW,342,5.0,9.0,76,-99.99,,,-99.99,,2013-02-13 02:41:00,
2013-02-12 18:52:00,23.0,16.0,-100.00,NNW,342,5.0,9.0,76,-99.99,,,-99.99,,2013-02-13 02:52:00,
2013-02-12 19:01:00,22.0,16.0,-100.00,NNW,342,4.0,7.0,77,-99.99,,,-99.99,,2013-02-13 03:01:00,
2013-02-12 19:11:00,21.0,15.0,-100.00,North,357,4.0,9.0,78,-99.99,,,-99.99,,2013-02-13 03:11:00,
2013-02-12 19:21:00,21.0,16.0,-100.00,NE,38,3.0,6.0,80,-99.99,,,-99.99,,2013-02-13 03:21:00,
2013-02-12 19:32:00,21.0,16.0,-100.00,ENE,64,3.0,6.0,80,-99.99,,,-99.99,,2013-02-13 03:32:00,
2013-02-12 19:40:00,19.0,14.0,-100.00,NNE,21,4.0,6.0,82,-99.99,,,-99.99,,2013-02-13 03:40:00,
2013-02-12 19:41:00,21.0,16.0,-100.00,ENE,64,3.0,6.0,80,-99.99,,,-99.99,,2013-02-13 03:41:00,
2013-02-12 19:51:00,21.0,15.0,-100.00,NNE,31,2.0,4.0,79,-99.99,,,-99.99,,2013-02-13 03:51:00,
2013-02-12 20:01:00,19.0,14.0,-100.00,North,3,3.0,6.0,81,-99.99,,,-99.99,,2013-02-13 04:01:00,
2013-02-12 20:11:00,18.0,14.0,-100.00,North,6,5.0,6.0,83,-99.99,,,-99.99,,2013-02-13 04:11:00,
2013-02-12 20:21:00,19.0,14.0,-100.00,NNE,21,4.0,6.0,82,-99.99,,,-99.99,,2013-02-13 04:21:00,
2013-02-12 20:31:00,19.0,14.0,-100.00,NNE,21,4.0,6.0,82,-99.99,,,-99.99,,2013-02-13 04:31:00,
2013-02-12 21:11:00,21.0,16.0,-100.00,NE,47,6.0,11.0,79,-99.99,,,-99.99,,2013-02-13 05:11:00,
2013-02-12 21:22:00,21.0,16.0,-100.00,NE,56,5.0,9.0,79,-99.99,,,-99.99,,2013-02-13 05:22:00,
2013-02-12 21:31:00,21.0,16.0,-100.00,NNE,28,4.0,8.0,79,-99.99,,,-99.99,,2013-02-13 05:31:00,
2013-02-12 21:41:00,21.0,16.0,-100.00,NE,45,2.0,5.0,79,-99.99,,,-99.99,,2013-02-13 05:41:00,
2013-02-12 21:52:00,16.0,11.0,-100.00,NE,35,2.0,5.0,78,-99.99,,,-99.99,,2013-02-13 05:52:00,
2013-02-12 22:02:00,16.0,12.0,-100.00,North,4,2.0,4.0,84,-99.99,,,-99.99,,2013-02-13 06:02:00,
2013-02-12 22:11:00,18.0,14.0,-100.00,NE,34,2.0,5.0,85,-99.99,,,-99.99,,2013-02-13 06:11:00,
2013-02-12 22:21:00,14.0,10.0,-100.00,North,8,2.0,4.0,83,-99.99,,,-99.99,,2013-02-13 06:21:00,
2013-02-12 22:31:00,16.0,12.0,-100.00,NE,56,3.0,5.0,84,-99.99,,,-99.99,,2013-02-13 06:31:00,
2013-02-12 22:41:00,17.0,13.0,-100.00,NE,48,5.0,8.0,86,-99.99,,,-99.99,,2013-02-13 06:41:00,
2013-02-12 22:51:00,17.0,13.0,-100.00,NE,49,3.0,8.0,84,-99.99,,,-99.99,,2013-02-13 06:51:00,
2013-02-12 23:02:00,15.0,11.0,-100.00,North,4,2.0,3.0,83,-99.99,,,-99.99,,2013-02-13 07:02:00,
2013-02-12 23:11:00,14.0,11.0,-100.00,NNE,17,3.0,5.0,87,-99.99,,,-99.99,,2013-02-13 07:11:00,
2013-02-12 23:21:00,17.0,14.0,-100.00,NNE,28,3.0,5.0,89,-99.99,,,-99.99,,2013-02-13 07:21:00,
2013-02-12 23:31:00,16.0,12.0,-100.00,NNE,17,3.0,5.0,86,-99.99,,,-99.99,,2013-02-13 07:31:00,
2013-02-12 23:41:00,19.0,15.0,-100.00,NE,47,4.0,8.0,81,-99.99,,,-99.99,,2013-02-13 07:41:00,
2013-02-12 23:51:00,21.0,15.0,-100.00,NE,38,6.0,9.0,79,-99.99,,,-99.99,,2013-02-13 07:51:00,